Warning: Javascript must be enabled to use all the features on this page!


Page Loading - Please Wait...

* We've detected you're using a mobile device. Find our Next Generation Station Page here.
Click to hideNews Bulletins

Streamflow Measurements for the Nation


USGS 295308085143700 IWW EAST OF GULF CO CANAL NEAR PORT ST JOE, FL


Gulf County, Florida
Hydrologic Unit Code 03140101
Latitude  29°53'08.0", Longitude  85°14'37.0" NAD83
Output formats
HTML table with channel data
HTML table without channel data
Tab-separated data with channel data
Tab-separated data without channel data
Graph of data
Reselect output format
Meas.
Number
  Date       Time Time
Datum
Measurement
Used?
  Who Measuring
Agency
Stream
flow
(ft3/s)
Gage
Height
(ft)
GH
Change
(ft)
Meas.
Duration
(hr)
Meas.
Rated
  Control Flow
Adjust.
Code
 
1192022-09-16 08:51:42EDTYesNKY/TAKUSGS63101.21 0.10PoorDebrisLightNONE
1182022-09-16 08:45:06EDTYesNKY/TAKUSGS61501.22 PoorDebrisLightNONE
1172022-09-16 08:38:27EDTYesNKY/TAKUSGS59801.24 0.10FairDebrisLightNONE
1162022-09-16 08:31:38EDTYesNKY/TAKUSGS57601.26 0.10PoorDebrisLightNONE
1152022-09-16 08:24:43EDTYesNKY/TAKUSGS51001.28 0.10PoorDebrisLightNONE
1142022-09-16 08:17:51EDTYesNKY/TAKUSGS48701.29 0.10PoorDebrisLightNONE
1132022-09-16 08:11:15EDTYesNKY/TAKUSGS46501.29 0.10FairDebrisLightNONE
1122022-09-16 08:04:55EDTYesNKY/TAKUSGS45101.31 0.10FairDebrisLightNONE
1112022-09-16 07:59:20EDTYesNKY/TAKUSGS47101.33 0.10PoorDebrisLightNONE
1102022-09-16 07:42:26EDTYesNKY/TAKUSGS37901.36-0.160.06PoorDebrisLightNONE
1092022-09-15 12:17:35EDTYesNKY/TAKUSGS62101.03 0.10GoodDebrisLightNONE
1082022-09-15 11:45:41EDTYesNKY/TAKUSGS67300.99 0.10GoodDebrisLightNONE
1072022-09-15 11:16:18EDTYesNKY/TAKUSGS71700.93 0.10GoodDebrisLightNONE
1062022-09-15 10:37:51EDTYesNKY/TAKUSGS75700.89 0.20GoodDebrisLightNONE
1052022-09-15 09:59:01EDTYesNKY/TAKUSGS73400.95 GoodDebrisLightNONE
1042022-09-15 09:31:10EDTYesNKY/TAKUSGS65401.06 0.20GoodDebrisLightNONE
1032022-08-25 11:11:19EDTYesNKY/TAKUSGS-12301.61 0.10PoorDebrisLightNONE
1022022-08-25 11:04:13EDTYesNKY/TAKUSGS-10301.58 0.10PoorDebrisLightNONE
1012022-08-25 10:57:43EDTYesNKY/TAKUSGS-9671.58 0.10PoorDebrisLightNONE
1002022-08-25 10:39:28EDTYesNKY/TAKUSGS-7061.55 0.10PoorDebrisLightNONE
992022-08-25 10:33:09EDTYesNKY/TAKUSGS-7831.52 0.10PoorDebrisLightNONE
982022-08-25 10:27:11EDTYesNKY/TAKUSGS-7101.52 0.10PoorDebrisLightNONE
972022-08-25 10:05:53EDTYesNKY/TAKUSGS-9551.51 PoorDebrisLightNONE
962022-08-25 09:59:57EDTYesNKY/TAKUSGS-11401.51 0.08PoorDebrisLightNONE
952022-07-14 16:49:09EDTYesNKY/TAKUSGS33401.18 0.10PoorDebrisLightNONE
942022-07-14 16:42:57EDTYesNKY/TAKUSGS29101.22 0.10PoorDebrisLightNONE
932022-07-14 16:08:55EDTYesNKY/TAKUSGS11201.38 0.10PoorDebrisLightNONE
922022-07-14 16:02:35EDTYesNKY/TAKUSGS9481.40 0.10FairDebrisLightNONE
912022-07-14 15:56:24EDTYesNKY/TAKUSGS5131.45 0.10PoorDebrisLightNONE
902022-06-16 17:54:18EDTYesNKY/TAKUSGS33100.96 0.10PoorDebrisLightNONE
892022-06-16 17:48:39EDTYesNKY/TAKUSGS27800.97 0.10PoorDebrisLightNONE
882022-06-16 17:43:08EDTYesNKY/TAKUSGS23900.99 0.10PoorDebrisLightNONE
872022-06-16 17:36:48EDTYesNKY/TAKUSGS20001.02 0.10PoorDebrisLightNONE
862022-06-16 15:47:28EDTYesNKY/TAKUSGS-32201.50 0.13PoorDebrisLightNONE
852022-06-16 14:54:07EDTYesNKY/TAKUSGS-29201.53 0.13PoorDebrisLightNONE
842022-06-16 13:46:43EDTYesNKY/TAKUSGS-29101.51 0.32PoorDebrisLightNONE
832022-06-16 13:08:23EDTYesNKY/TAKUSGS-30701.51 0.25PoorDebrisLightNONE
822022-06-16 12:24:32EDTYesNKY/TAKUSGS-38201.51 0.20GoodDebrisLightNONE
812022-06-16 11:14:05EDTYesNKY/TAKUSGS-45801.46 0.23GoodDebrisLightNONE
802022-06-15 16:04:37EDTYesNKY/TAKUSGS7551.15 0.10PoorDebrisLightNONE
792022-06-15 15:50:01EDTYesNKY/TAKUSGS-1241.22 0.10PoorDebrisLightNONE
782022-06-15 15:41:01EDTYesNKY/TAKUSGS-6711.25 0.10PoorDebrisLightNONE
772022-06-15 15:23:32EDTYesNKY/TAKUSGS-13401.32 0.10FairDebrisLightNONE
762022-06-15 15:15:03EDTYesNKY/TAKUSGS-16101.32 0.10PoorDebrisLightNONE
752022-06-15 15:07:32EDTYesNKY/TAKUSGS-18101.35 0.10FairDebrisLightNONE
742022-05-18 14:31:40EDTYesNKY/TAKUSGS-44301.66 0.27FairDebrisLightNONE
732022-05-18 14:00:05EDTYesNKY/TAKUSGS-43301.70 0.28FairDebrisLightNONE
722022-05-18 13:19:26EDTYesNKY/TAKUSGS-42101.72 0.20FairDebrisLightNONE
712022-05-18 12:51:45EDTYesNKY/TAKUSGS-39201.71 0.20FairDebrisLightNONE
702022-05-18 12:19:34EDTYesNKY/TAKUSGS-36801.66 0.20FairDebrisLightNONE
692022-05-18 11:50:16EDTYesNKY/TAKUSGS-33801.62 0.26FairDebrisLightNONE
682022-04-14 16:31:19EDTYesNKY/OAGUSGS62901.19 0.20FairDebrisModerateNONE
672022-04-14 16:10:27EDTYesNKY/OAGUSGS62401.22 0.30PoorDebrisModerateNONE
662022-04-14 15:41:33EDTYesNKY/OAGUSGS60901.22 0.29GoodDebrisModerateNONE
652022-04-13 16:39:34EDTYesTAK/OAGUSGS60201.08 0.25GoodDebrisModerateNONE
642022-04-13 16:03:06EDTYesTAK/OAGUSGS63300.98 0.20GoodDebrisModerateNONE
632022-04-13 15:25:41EDTYesTAK/OAGUSGS63400.96 0.30GoodDebrisModerateNONE
622022-04-13 11:56:35EDTYesTAK/OAGUSGS54501.03 0.30GoodDebrisModerateNONE
612022-04-13 11:07:51EDTYesTAK/OAGUSGS58300.93 0.30FairDebrisModerateNONE
602022-04-13 09:28:32EDTYesTAK/OAGUSGS69700.71 0.30GoodDebrisModerateNONE
592021-11-17 13:03:11ESTYesRMC/ZPRUSGS-20500.64 0.10FairDebrisLightNONE
582021-11-17 12:56:39ESTYesRMC/ZPRUSGS-18300.62 0.10FairDebrisLightNONE
572021-11-17 12:50:06ESTYesRMC/ZPRUSGS-17100.62 0.10FairDebrisLightNONE
562021-11-17 12:31:09ESTYesRMC/ZPRUSGS-13300.60 0.10FairDebrisLightNONE
552021-11-17 12:24:42ESTYesRMC/ZPRUSGS-12200.60 0.10FairDebrisLightNONE
542021-11-17 12:18:12ESTYesRMC/ZPRUSGS-10800.60 0.10PoorDebrisLightNONE
532021-11-17 12:11:40ESTYesRMC/ZPRUSGS-8970.59 0.10FairDebrisLightNONE
522021-11-17 12:04:52ESTYesRMC/ZPRUSGS-7790.59 0.10PoorDebrisLightNONE
512021-11-17 11:58:24ESTYesRMC/ZPRUSGS-5400.58 0.10PoorDebrisLightNONE
502021-11-17 11:52:06ESTYesRMC/ZPRUSGS-3880.59 0.10PoorDebrisLightNONE
492021-11-17 11:45:38ESTYesRMC/ZPRUSGS-2020.61 0.10PoorDebrisLightNONE
482021-11-17 11:39:20ESTYesRMC/ZPRUSGS40.20.62 0.20PoorDebrisLightNONE
472021-11-17 11:25:47ESTYesRMC/ZPRUSGS4540.62 0.20PoorDebrisLightNONE
462021-11-17 11:09:25ESTYesRMC/ZPRUSGS8800.61 PoorDebrisLightNONE
452021-11-17 11:02:49ESTYesRMC/ZPRUSGS9620.60 0.11PoorDebrisLightNONE
442021-10-19 13:21:33EDTYesRMC/ZPRUSGS36101.37 0.30GoodDebrisModerateNONE
432021-10-19 12:51:34EDTYesRMC/ZPRUSGS43401.28 0.20GoodDebrisModerateNONE
422021-10-19 12:26:39EDTYesRMC/ZPRUSGS45001.23 0.23GoodDebrisModerateNONE
412021-09-16 12:01:49EDTYesNKY/EHNUSGS28201.75 0.20PoorDebrisModerateNONE
402021-09-16 11:52:14EDTYesNKY/EHNUSGS24701.76 0.20FairDebrisModerateNONE
392021-09-16 11:40:42EDTYesNKY/EHNUSGS19701.79 0.20PoorDebrisModerateNONE
382021-09-16 11:28:22EDTYesNKY/EHNUSGS13501.82 0.20PoorDebrisModerateNONE
372021-09-16 11:19:23EDTYesNKY/EHNUSGS9151.87 0.20PoorDebrisModerateNONE
362021-09-16 11:09:44EDTYesNKY/EHNUSGS4251.88 0.20PoorDebrisModerateNONE
352021-09-16 11:02:16EDTYesNKY/EHNUSGS1781.89 0.10PoorDebrisModerateNONE
342021-09-16 10:55:10EDTYesNKY/EHNUSGS-2481.98 0.10PoorDebrisModerateNONE
332021-09-16 10:27:29EDTYesNKY/EHNUSGS-8072.06 0.23PoorDebrisModerateNONE
322021-09-07 15:01:55EDTYesRMC/NKYUSGS-1381.44 0.20PoorDebrisHeavyNONE
312021-09-07 14:52:34EDTYesRMC/NKYUSGS-88.61.42 0.20PoorDebrisHeavyNONE
302021-09-07 14:35:29EDTYesRMC/NKYUSGS-4771.45 0.20PoorDebrisHeavyNONE
292021-09-07 14:20:16EDTYesRMC/NKYUSGS-6821.49 0.20PoorDebrisHeavyNONE
282021-09-07 13:58:31EDTYesRMC/NKYUSGS-7171.49 0.20PoorDebrisHeavyNONE
272021-09-07 13:50:17EDTYesRMC/NKYUSGS-7611.52 0.14PoorDebrisHeavyNONE
262021-08-26 15:50:10EDTYesNKY/MECUSGS48401.34 0.20FairDebrisHeavyNONE
252021-08-26 15:30:12EDTYesNKY/MECUSGS51401.32 0.30FairDebrisHeavyNONE
242021-08-26 14:59:56EDTYesNKY/MECUSGS53401.32 0.28FairDebrisHeavyNONE
232021-07-01 17:19:13EDTYesNKY/MECUSGS38600.99 0.10PoorDebrisModerateNONE
222021-07-01 17:10:43EDTYesNKY/MECUSGS40900.99 0.10FairDebrisModerateNONE
212021-07-01 16:53:05EDTYesNKY/MECUSGS43400.95 0.10FairDebrisModerateNONE
202021-07-01 16:30:33EDTYesNKY/MECUSGS45400.95 0.30FairDebrisModerateNONE
192021-04-28 18:24:21EDTYesNKY/EHNUSGS72600.78 0.26GoodDebrisLightNONE
182021-04-28 18:08:06EDTYesNKY/EHNUSGS71600.80 0.28GoodDebrisLightNONE
172021-04-28 17:50:50EDTYesNKY/EHNUSGS69400.83 0.29FairDebrisLightNONE
162021-04-28 17:33:41EDTYesNKY/EHNUSGS65300.87 0.28FairDebrisLightNONE
152021-04-28 17:16:36EDTYesNKY/EHNUSGS59900.94 0.29FairDebrisLightNONE
142021-04-28 16:59:47EDTYesNKY/EHNUSGS55201.01 0.26FairDebrisLightNONE
132021-04-28 16:40:41EDTYesNKY/EHNUSGS47001.10 0.26FairDebrisLightNONE
122021-02-04 15:58:29ESTYesNKY/RMCUSGS26900.89 0.20FairDebrisLightNONE
112021-02-04 15:26:02ESTYesNKY/RMCUSGS27600.83 0.20FairDebrisLightNONE
102021-02-04 14:54:25ESTYesNKY/RMCUSGS28500.82 0.20FairDebrisLightNONE
92021-02-04 14:23:13ESTYesNKY/RMCUSGS29300.81 0.20FairDebrisLightNONE
82020-12-21 15:08:20ESTYesNKY/CRCUSGS24500.19 0.20FairDebrisModerateNONE
72020-12-21 14:43:01ESTYesNKY/CRCUSGS31000.18 0.20PoorDebrisModerateNONE
62020-12-21 14:21:55ESTYesNKY/CRCUSGS35400.16 0.20FairDebrisModerateNONE
52020-10-22 17:19:04EDTYesNKY/RMCUSGS68501.000.030.20GoodDebrisLightNONE
42020-10-22 17:05:17EDTYesNKY/RMCUSGS72000.970.030.20GoodDebrisLightNONE
32020-10-22 16:36:03EDTYesNKY/RMCUSGS76400.95-0.010.20FairDebrisLightNONE
22020-10-22 16:23:55EDTYesNKY/RMCUSGS78000.930.010.10PoorDebrisLightNONE
12020-04-22 17:58:11EDTYesRGK/TJNUSGS6510 Fair NONE